sensor_id;sensor_type;location;lat;lon;timestamp;P1;durP1;ratioP1;P2;durP2;ratioP2
31978;SDS011;18502;43.574;1.276;2023-02-21T00:02:10;10.65;;;6.28;;
31978;SDS011;18502;43.574;1.276;2023-02-21T00:04:56;11.23;;;6.95;;
31978;SDS011;18502;43.574;1.276;2023-02-21T00:07:40;12.95;;;7.00;;
31978;SDS011;18502;43.574;1.276;2023-02-21T00:10:25;14.88;;;6.97;;
31978;SDS011;18502;43.574;1.276;2023-02-21T00:13:09;12.90;;;7.25;;
31978;SDS011;18502;43.574;1.276;2023-02-21T00:15:54;13.60;;;7.47;;
31978;SDS011;18502;43.574;1.276;2023-02-21T00:18:38;13.05;;;7.93;;
31978;SDS011;18502;43.574;1.276;2023-02-21T00:21:23;11.55;;;7.50;;
31978;SDS011;18502;43.574;1.276;2023-02-21T00:24:13;13.10;;;8.20;;
31978;SDS011;18502;43.574;1.276;2023-02-21T00:26:59;18.55;;;9.15;;
31978;SDS011;18502;43.574;1.276;2023-02-21T00:29:43;16.58;;;8.05;;
31978;SDS011;18502;43.574;1.276;2023-02-21T00:32:29;14.05;;;7.60;;
31978;SDS011;18502;43.574;1.276;2023-02-21T00:35:14;17.00;;;8.00;;
31978;SDS011;18502;43.574;1.276;2023-02-21T00:37:58;14.40;;;8.73;;
31978;SDS011;18502;43.574;1.276;2023-02-21T00:40:42;14.00;;;8.70;;
31978;SDS011;18502;43.574;1.276;2023-02-21T00:43:30;13.82;;;8.43;;
31978;SDS011;18502;43.574;1.276;2023-02-21T00:46:16;16.17;;;8.60;;
31978;SDS011;18502;43.574;1.276;2023-02-21T00:49:01;14.35;;;8.60;;
31978;SDS011;18502;43.574;1.276;2023-02-21T00:51:46;13.55;;;8.77;;
31978;SDS011;18502;43.574;1.276;2023-02-21T00:54:30;12.50;;;8.82;;
31978;SDS011;18502;43.574;1.276;2023-02-21T00:57:14;15.38;;;8.52;;
31978;SDS011;18502;43.574;1.276;2023-02-21T00:59:58;19.88;;;9.30;;
31978;SDS011;18502;43.574;1.276;2023-02-21T01:02:42;15.55;;;10.18;;
31978;SDS011;18502;43.574;1.276;2023-02-21T01:05:27;17.23;;;11.43;;
31978;SDS011;18502;43.574;1.276;2023-02-21T01:08:11;18.15;;;10.45;;
31978;SDS011;18502;43.574;1.276;2023-02-21T01:10:56;17.52;;;11.43;;
31978;SDS011;18502;43.574;1.276;2023-02-21T01:13:40;20.35;;;12.38;;
31978;SDS011;18502;43.574;1.276;2023-02-21T01:16:27;21.27;;;12.38;;
31978;SDS011;18502;43.574;1.276;2023-02-21T01:19:12;20.13;;;12.60;;
31978;SDS011;18502;43.574;1.276;2023-02-21T01:21:56;24.15;;;13.93;;
31978;SDS011;18502;43.574;1.276;2023-02-21T01:24:40;19.10;;;12.15;;
31978;SDS011;18502;43.574;1.276;2023-02-21T01:27:24;25.45;;;13.40;;
31978;SDS011;18502;43.574;1.276;2023-02-21T01:30:08;23.35;;;13.00;;
31978;SDS011;18502;43.574;1.276;2023-02-21T01:32:53;21.88;;;12.88;;
31978;SDS011;18502;43.574;1.276;2023-02-21T01:35:37;25.83;;;13.63;;
31978;SDS011;18502;43.574;1.276;2023-02-21T01:38:21;21.95;;;13.35;;
31978;SDS011;18502;43.574;1.276;2023-02-21T01:41:05;28.95;;;14.30;;
31978;SDS011;18502;43.574;1.276;2023-02-21T01:43:57;27.63;;;14.88;;
31978;SDS011;18502;43.574;1.276;2023-02-21T01:46:48;23.70;;;14.15;;
31978;SDS011;18502;43.574;1.276;2023-02-21T01:49:34;28.25;;;14.65;;
31978;SDS011;18502;43.574;1.276;2023-02-21T01:52:21;25.05;;;14.65;;
31978;SDS011;18502;43.574;1.276;2023-02-21T01:55:06;28.05;;;14.43;;
31978;SDS011;18502;43.574;1.276;2023-02-21T01:57:50;25.33;;;14.93;;
31978;SDS011;18502;43.574;1.276;2023-02-21T02:00:36;24.95;;;15.55;;
31978;SDS011;18502;43.574;1.276;2023-02-21T02:03:21;27.77;;;15.20;;
31978;SDS011;18502;43.574;1.276;2023-02-21T02:06:07;25.85;;;16.35;;
31978;SDS011;18502;43.574;1.276;2023-02-21T02:08:54;28.17;;;16.42;;
31978;SDS011;18502;43.574;1.276;2023-02-21T02:23:10;30.13;;;17.83;;
31978;SDS011;18502;43.574;1.276;2023-02-21T02:37:04;30.02;;;16.65;;
31978;SDS011;18502;43.574;1.276;2023-02-21T02:45:10;30.35;;;18.42;;
31978;SDS011;18502;43.574;1.276;2023-02-21T02:47:44;31.77;;;19.08;;
31978;SDS011;18502;43.574;1.276;2023-02-21T02:50:15;29.52;;;19.15;;
31978;SDS011;18502;43.574;1.276;2023-02-21T02:52:54;34.63;;;19.42;;
31978;SDS011;18502;43.574;1.276;2023-02-21T02:55:29;35.60;;;18.52;;
31978;SDS011;18502;43.574;1.276;2023-02-21T02:58:09;26.10;;;16.80;;
31978;SDS011;18502;43.574;1.276;2023-02-21T03:00:37;33.03;;;18.88;;
31978;SDS011;18502;43.574;1.276;2023-02-21T03:06:32;29.40;;;18.55;;
31978;SDS011;18502;43.574;1.276;2023-02-21T03:12:04;32.88;;;18.80;;
31978;SDS011;18502;43.574;1.276;2023-02-21T03:14:49;31.55;;;17.58;;
31978;SDS011;18502;43.574;1.276;2023-02-21T03:17:23;33.00;;;20.02;;
31978;SDS011;18502;43.574;1.276;2023-02-21T03:19:50;31.25;;;19.13;;
31978;SDS011;18502;43.574;1.276;2023-02-21T03:22:19;35.35;;;20.10;;
31978;SDS011;18502;43.574;1.276;2023-02-21T03:24:48;33.20;;;19.67;;
31978;SDS011;18502;43.574;1.276;2023-02-21T03:27:15;40.90;;;20.20;;
31978;SDS011;18502;43.574;1.276;2023-02-21T03:29:42;37.85;;;21.98;;
31978;SDS011;18502;43.574;1.276;2023-02-21T03:34:59;29.35;;;18.25;;
31978;SDS011;18502;43.574;1.276;2023-02-21T03:37:36;38.15;;;20.98;;
31978;SDS011;18502;43.574;1.276;2023-02-21T03:40:05;33.28;;;19.83;;
31978;SDS011;18502;43.574;1.276;2023-02-21T03:42:43;38.47;;;20.55;;
31978;SDS011;18502;43.574;1.276;2023-02-21T03:45:09;36.35;;;20.63;;
31978;SDS011;18502;43.574;1.276;2023-02-21T03:47:34;36.83;;;21.92;;
31978;SDS011;18502;43.574;1.276;2023-02-21T03:50:01;37.53;;;20.40;;
31978;SDS011;18502;43.574;1.276;2023-02-21T03:52:28;35.67;;;21.42;;
31978;SDS011;18502;43.574;1.276;2023-02-21T03:54:54;39.75;;;23.00;;
31978;SDS011;18502;43.574;1.276;2023-02-21T03:57:20;38.00;;;21.65;;
31978;SDS011;18502;43.574;1.276;2023-02-21T03:59:46;38.97;;;22.80;;
31978;SDS011;18502;43.574;1.276;2023-02-21T04:02:12;36.72;;;22.50;;
31978;SDS011;18502;43.574;1.276;2023-02-21T04:04:37;37.67;;;21.48;;
31978;SDS011;18502;43.574;1.276;2023-02-21T04:07:03;41.05;;;23.10;;
31978;SDS011;18502;43.574;1.276;2023-02-21T04:09:28;36.53;;;20.70;;
31978;SDS011;18502;43.574;1.276;2023-02-21T04:11:54;40.63;;;22.45;;
31978;SDS011;18502;43.574;1.276;2023-02-21T04:14:20;33.92;;;20.58;;
31978;SDS011;18502;43.574;1.276;2023-02-21T04:16:45;39.42;;;22.58;;
31978;SDS011;18502;43.574;1.276;2023-02-21T04:19:11;41.83;;;22.00;;
31978;SDS011;18502;43.574;1.276;2023-02-21T04:21:37;38.53;;;21.42;;
31978;SDS011;18502;43.574;1.276;2023-02-21T04:24:03;43.08;;;22.13;;
31978;SDS011;18502;43.574;1.276;2023-02-21T04:26:28;42.83;;;21.80;;
31978;SDS011;18502;43.574;1.276;2023-02-21T04:28:54;41.10;;;22.55;;
31978;SDS011;18502;43.574;1.276;2023-02-21T04:31:21;36.22;;;20.58;;
31978;SDS011;18502;43.574;1.276;2023-02-21T04:33:47;35.50;;;20.80;;
31978;SDS011;18502;43.574;1.276;2023-02-21T04:36:13;42.28;;;21.52;;
31978;SDS011;18502;43.574;1.276;2023-02-21T04:38:38;34.95;;;21.80;;
31978;SDS011;18502;43.574;1.276;2023-02-21T04:41:04;44.50;;;22.15;;
31978;SDS011;18502;43.574;1.276;2023-02-21T04:43:30;43.63;;;22.95;;
31978;SDS011;18502;43.574;1.276;2023-02-21T04:45:56;37.60;;;22.70;;
31978;SDS011;18502;43.574;1.276;2023-02-21T04:48:22;39.35;;;22.80;;
31978;SDS011;18502;43.574;1.276;2023-02-21T04:50:48;38.25;;;21.42;;
31978;SDS011;18502;43.574;1.276;2023-02-21T04:53:14;39.58;;;21.42;;
31978;SDS011;18502;43.574;1.276;2023-02-21T04:55:40;41.47;;;23.70;;
31978;SDS011;18502;43.574;1.276;2023-02-21T04:58:05;44.58;;;22.58;;
31978;SDS011;18502;43.574;1.276;2023-02-21T05:00:31;42.13;;;21.83;;
31978;SDS011;18502;43.574;1.276;2023-02-21T05:02:57;41.67;;;22.17;;
31978;SDS011;18502;43.574;1.276;2023-02-21T05:05:22;40.88;;;22.85;;
31978;SDS011;18502;43.574;1.276;2023-02-21T05:07:48;35.38;;;22.02;;
31978;SDS011;18502;43.574;1.276;2023-02-21T05:10:15;39.65;;;23.10;;
31978;SDS011;18502;43.574;1.276;2023-02-21T05:12:41;40.08;;;21.67;;
31978;SDS011;18502;43.574;1.276;2023-02-21T05:15:09;40.80;;;22.52;;
31978;SDS011;18502;43.574;1.276;2023-02-21T05:17:36;34.50;;;20.35;;
31978;SDS011;18502;43.574;1.276;2023-02-21T05:20:02;42.83;;;22.40;;
31978;SDS011;18502;43.574;1.276;2023-02-21T05:22:28;42.13;;;22.73;;
31978;SDS011;18502;43.574;1.276;2023-02-21T05:24:54;40.95;;;21.63;;
31978;SDS011;18502;43.574;1.276;2023-02-21T05:27:20;37.47;;;21.85;;
31978;SDS011;18502;43.574;1.276;2023-02-21T05:29:47;35.75;;;20.70;;
31978;SDS011;18502;43.574;1.276;2023-02-21T05:32:15;41.88;;;21.83;;
31978;SDS011;18502;43.574;1.276;2023-02-21T05:34:42;38.45;;;21.67;;
31978;SDS011;18502;43.574;1.276;2023-02-21T05:37:15;39.25;;;21.30;;
31978;SDS011;18502;43.574;1.276;2023-02-21T05:39:42;36.58;;;20.05;;
31978;SDS011;18502;43.574;1.276;2023-02-21T05:42:07;33.85;;;18.77;;
31978;SDS011;18502;43.574;1.276;2023-02-21T05:44:34;37.72;;;21.60;;
31978;SDS011;18502;43.574;1.276;2023-02-21T05:47:00;34.83;;;18.40;;
31978;SDS011;18502;43.574;1.276;2023-02-21T05:49:26;35.88;;;18.42;;
31978;SDS011;18502;43.574;1.276;2023-02-21T05:51:52;36.47;;;19.05;;
31978;SDS011;18502;43.574;1.276;2023-02-21T05:54:19;34.92;;;18.58;;
31978;SDS011;18502;43.574;1.276;2023-02-21T05:56:46;38.45;;;20.73;;
31978;SDS011;18502;43.574;1.276;2023-02-21T05:59:14;37.80;;;19.60;;
31978;SDS011;18502;43.574;1.276;2023-02-21T06:01:40;36.10;;;20.35;;
31978;SDS011;18502;43.574;1.276;2023-02-21T06:04:06;33.30;;;18.27;;
31978;SDS011;18502;43.574;1.276;2023-02-21T06:06:33;36.47;;;18.88;;
31978;SDS011;18502;43.574;1.276;2023-02-21T06:08:59;32.25;;;18.70;;
31978;SDS011;18502;43.574;1.276;2023-02-21T06:11:26;31.20;;;16.15;;
31978;SDS011;18502;43.574;1.276;2023-02-21T06:13:55;34.63;;;18.70;;
31978;SDS011;18502;43.574;1.276;2023-02-21T06:16:22;33.20;;;18.15;;
31978;SDS011;18502;43.574;1.276;2023-02-21T06:18:49;30.90;;;16.50;;
31978;SDS011;18502;43.574;1.276;2023-02-21T06:21:16;33.83;;;20.23;;
31978;SDS011;18502;43.574;1.276;2023-02-21T06:23:42;35.60;;;20.27;;
31978;SDS011;18502;43.574;1.276;2023-02-21T06:26:08;34.45;;;18.58;;
31978;SDS011;18502;43.574;1.276;2023-02-21T06:28:34;34.70;;;19.25;;
31978;SDS011;18502;43.574;1.276;2023-02-21T06:30:59;34.72;;;19.40;;
31978;SDS011;18502;43.574;1.276;2023-02-21T06:33:25;37.17;;;20.13;;
31978;SDS011;18502;43.574;1.276;2023-02-21T06:35:51;32.47;;;19.02;;
31978;SDS011;18502;43.574;1.276;2023-02-21T06:38:17;39.95;;;19.67;;
31978;SDS011;18502;43.574;1.276;2023-02-21T06:40:43;34.72;;;19.50;;
31978;SDS011;18502;43.574;1.276;2023-02-21T06:43:09;32.30;;;19.50;;
31978;SDS011;18502;43.574;1.276;2023-02-21T06:45:34;30.88;;;19.38;;
31978;SDS011;18502;43.574;1.276;2023-02-21T06:48:00;31.20;;;18.25;;
31978;SDS011;18502;43.574;1.276;2023-02-21T06:50:26;37.03;;;17.65;;
31978;SDS011;18502;43.574;1.276;2023-02-21T06:52:51;37.15;;;18.15;;
31978;SDS011;18502;43.574;1.276;2023-02-21T06:55:20;39.35;;;19.27;;
31978;SDS011;18502;43.574;1.276;2023-02-21T06:57:47;34.50;;;19.15;;
31978;SDS011;18502;43.574;1.276;2023-02-21T07:00:13;33.70;;;19.83;;
31978;SDS011;18502;43.574;1.276;2023-02-21T07:02:40;38.00;;;19.15;;
31978;SDS011;18502;43.574;1.276;2023-02-21T07:05:06;34.78;;;19.25;;
31978;SDS011;18502;43.574;1.276;2023-02-21T07:07:32;36.35;;;20.42;;
31978;SDS011;18502;43.574;1.276;2023-02-21T07:09:58;34.42;;;19.27;;
31978;SDS011;18502;43.574;1.276;2023-02-21T07:12:24;33.53;;;19.73;;
31978;SDS011;18502;43.574;1.276;2023-02-21T07:14:51;33.47;;;18.17;;
31978;SDS011;18502;43.574;1.276;2023-02-21T07:17:18;28.73;;;18.40;;
31978;SDS011;18502;43.574;1.276;2023-02-21T07:19:43;28.48;;;17.40;;
31978;SDS011;18502;43.574;1.276;2023-02-21T07:22:09;31.52;;;17.65;;
31978;SDS011;18502;43.574;1.276;2023-02-21T07:24:35;32.15;;;18.67;;
31978;SDS011;18502;43.574;1.276;2023-02-21T07:27:01;25.75;;;16.05;;
31978;SDS011;18502;43.574;1.276;2023-02-21T07:29:27;29.95;;;17.05;;
31978;SDS011;18502;43.574;1.276;2023-02-21T07:31:53;30.15;;;16.92;;
31978;SDS011;18502;43.574;1.276;2023-02-21T07:34:19;29.60;;;16.98;;
31978;SDS011;18502;43.574;1.276;2023-02-21T07:36:46;28.10;;;17.08;;
31978;SDS011;18502;43.574;1.276;2023-02-21T07:39:12;28.98;;;16.02;;
31978;SDS011;18502;43.574;1.276;2023-02-21T07:41:37;26.73;;;17.50;;
31978;SDS011;18502;43.574;1.276;2023-02-21T07:44:03;31.88;;;16.95;;
31978;SDS011;18502;43.574;1.276;2023-02-21T07:46:29;24.75;;;16.42;;
31978;SDS011;18502;43.574;1.276;2023-02-21T07:48:55;26.60;;;14.23;;
31978;SDS011;18502;43.574;1.276;2023-02-21T07:51:20;27.27;;;15.32;;
31978;SDS011;18502;43.574;1.276;2023-02-21T07:53:46;33.28;;;17.42;;
31978;SDS011;18502;43.574;1.276;2023-02-21T07:56:12;27.15;;;15.57;;
31978;SDS011;18502;43.574;1.276;2023-02-21T07:58:37;23.65;;;14.43;;
31978;SDS011;18502;43.574;1.276;2023-02-21T08:01:04;29.88;;;16.00;;
31978;SDS011;18502;43.574;1.276;2023-02-21T08:03:30;27.52;;;15.27;;
31978;SDS011;18502;43.574;1.276;2023-02-21T08:05:57;23.48;;;12.05;;
31978;SDS011;18502;43.574;1.276;2023-02-21T08:08:23;24.17;;;14.90;;
31978;SDS011;18502;43.574;1.276;2023-02-21T08:10:49;30.67;;;16.35;;
31978;SDS011;18502;43.574;1.276;2023-02-21T08:13:15;26.08;;;14.18;;
31978;SDS011;18502;43.574;1.276;2023-02-21T08:15:41;29.13;;;15.27;;
31978;SDS011;18502;43.574;1.276;2023-02-21T08:18:13;27.23;;;15.18;;
31978;SDS011;18502;43.574;1.276;2023-02-21T08:20:42;24.10;;;13.25;;
31978;SDS011;18502;43.574;1.276;2023-02-21T08:23:08;23.88;;;12.75;;
31978;SDS011;18502;43.574;1.276;2023-02-21T08:25:34;22.30;;;14.32;;
31978;SDS011;18502;43.574;1.276;2023-02-21T08:27:59;21.50;;;13.02;;
31978;SDS011;18502;43.574;1.276;2023-02-21T08:30:25;20.10;;;11.75;;
31978;SDS011;18502;43.574;1.276;2023-02-21T08:32:51;21.45;;;13.00;;
31978;SDS011;18502;43.574;1.276;2023-02-21T08:35:17;24.65;;;13.48;;
31978;SDS011;18502;43.574;1.276;2023-02-21T08:37:46;22.45;;;11.32;;
31978;SDS011;18502;43.574;1.276;2023-02-21T08:40:13;21.53;;;13.57;;
31978;SDS011;18502;43.574;1.276;2023-02-21T08:42:40;22.35;;;13.63;;
31978;SDS011;18502;43.574;1.276;2023-02-21T08:45:06;16.67;;;10.77;;
31978;SDS011;18502;43.574;1.276;2023-02-21T08:47:34;20.48;;;12.65;;
31978;SDS011;18502;43.574;1.276;2023-02-21T08:50:00;22.33;;;12.02;;
31978;SDS011;18502;43.574;1.276;2023-02-21T08:52:26;19.60;;;12.02;;
31978;SDS011;18502;43.574;1.276;2023-02-21T08:54:52;21.90;;;13.55;;
31978;SDS011;18502;43.574;1.276;2023-02-21T08:57:17;17.33;;;10.10;;
31978;SDS011;18502;43.574;1.276;2023-02-21T08:59:43;21.55;;;11.70;;
31978;SDS011;18502;43.574;1.276;2023-02-21T09:02:16;18.35;;;12.07;;
31978;SDS011;18502;43.574;1.276;2023-02-21T09:04:46;21.55;;;12.40;;
31978;SDS011;18502;43.574;1.276;2023-02-21T09:07:13;13.55;;;7.15;;
31978;SDS011;18502;43.574;1.276;2023-02-21T09:09:40;14.80;;;9.30;;
31978;SDS011;18502;43.574;1.276;2023-02-21T09:12:06;17.40;;;10.85;;
31978;SDS011;18502;43.574;1.276;2023-02-21T09:14:33;15.02;;;10.50;;
31978;SDS011;18502;43.574;1.276;2023-02-21T09:17:03;17.42;;;9.80;;
31978;SDS011;18502;43.574;1.276;2023-02-21T09:19:30;18.73;;;11.35;;
31978;SDS011;18502;43.574;1.276;2023-02-21T09:21:56;15.10;;;10.02;;
31978;SDS011;18502;43.574;1.276;2023-02-21T09:24:22;17.55;;;9.32;;
31978;SDS011;18502;43.574;1.276;2023-02-21T09:26:52;14.32;;;9.05;;
31978;SDS011;18502;43.574;1.276;2023-02-21T09:31:45;16.27;;;10.00;;
31978;SDS011;18502;43.574;1.276;2023-02-21T09:34:11;16.10;;;10.93;;
31978;SDS011;18502;43.574;1.276;2023-02-21T09:36:37;15.93;;;9.95;;
31978;SDS011;18502;43.574;1.276;2023-02-21T09:39:03;15.95;;;9.93;;
31978;SDS011;18502;43.574;1.276;2023-02-21T09:41:31;12.60;;;8.32;;
31978;SDS011;18502;43.574;1.276;2023-02-21T09:43:58;12.75;;;8.52;;
31978;SDS011;18502;43.574;1.276;2023-02-21T09:46:32;10.17;;;6.40;;
31978;SDS011;18502;43.574;1.276;2023-02-21T09:49:02;18.73;;;7.88;;
31978;SDS011;18502;43.574;1.276;2023-02-21T09:51:31;14.27;;;8.97;;
31978;SDS011;18502;43.574;1.276;2023-02-21T09:54:01;15.45;;;6.15;;
31978;SDS011;18502;43.574;1.276;2023-02-21T09:58:58;13.43;;;8.50;;
31978;SDS011;18502;43.574;1.276;2023-02-21T10:04:22;14.30;;;8.77;;
31978;SDS011;18502;43.574;1.276;2023-02-21T10:07:21;18.77;;;8.68;;
31978;SDS011;18502;43.574;1.276;2023-02-21T10:10:01;11.05;;;6.60;;
31978;SDS011;18502;43.574;1.276;2023-02-21T10:18:21;12.50;;;8.55;;
31978;SDS011;18502;43.574;1.276;2023-02-21T10:21:00;15.70;;;9.40;;
31978;SDS011;18502;43.574;1.276;2023-02-21T10:23:40;13.40;;;7.30;;
31978;SDS011;18502;43.574;1.276;2023-02-21T10:26:11;13.80;;;8.38;;
31978;SDS011;18502;43.574;1.276;2023-02-21T10:28:43;11.48;;;8.18;;
31978;SDS011;18502;43.574;1.276;2023-02-21T10:31:17;13.32;;;8.38;;
31978;SDS011;18502;43.574;1.276;2023-02-21T10:33:48;11.73;;;7.38;;
31978;SDS011;18502;43.574;1.276;2023-02-21T10:36:19;11.73;;;6.32;;
31978;SDS011;18502;43.574;1.276;2023-02-21T10:41:30;12.52;;;8.60;;
31978;SDS011;18502;43.574;1.276;2023-02-21T10:46:46;16.08;;;9.23;;
31978;SDS011;18502;43.574;1.276;2023-02-21T10:49:22;17.73;;;8.95;;
31978;SDS011;18502;43.574;1.276;2023-02-21T10:54:27;12.57;;;8.38;;
31978;SDS011;18502;43.574;1.276;2023-02-21T10:56:53;14.02;;;9.32;;
31978;SDS011;18502;43.574;1.276;2023-02-21T10:59:27;12.07;;;8.70;;
31978;SDS011;18502;43.574;1.276;2023-02-21T11:01:57;16.02;;;8.65;;
31978;SDS011;18502;43.574;1.276;2023-02-21T11:04:26;12.80;;;8.93;;
31978;SDS011;18502;43.574;1.276;2023-02-21T11:07:07;15.18;;;9.20;;
31978;SDS011;18502;43.574;1.276;2023-02-21T11:12:17;15.90;;;9.70;;
31978;SDS011;18502;43.574;1.276;2023-02-21T11:19:56;16.30;;;7.50;;
31978;SDS011;18502;43.574;1.276;2023-02-21T11:25:00;11.05;;;8.57;;
31978;SDS011;18502;43.574;1.276;2023-02-21T11:27:29;16.83;;;10.27;;
31978;SDS011;18502;43.574;1.276;2023-02-21T11:29:58;14.43;;;9.50;;
31978;SDS011;18502;43.574;1.276;2023-02-21T11:32:31;11.73;;;9.00;;
31978;SDS011;18502;43.574;1.276;2023-02-21T11:35:45;14.50;;;8.57;;
31978;SDS011;18502;43.574;1.276;2023-02-21T11:37:56;13.95;;;9.00;;
31978;SDS011;18502;43.574;1.276;2023-02-21T11:48:28;12.18;;;7.65;;
31978;SDS011;18502;43.574;1.276;2023-02-21T11:51:12;11.45;;;7.88;;
31978;SDS011;18502;43.574;1.276;2023-02-21T11:54:02;15.82;;;10.45;;
31978;SDS011;18502;43.574;1.276;2023-02-21T11:56:41;12.07;;;7.50;;
31978;SDS011;18502;43.574;1.276;2023-02-21T12:04:29;18.95;;;9.55;;
31978;SDS011;18502;43.574;1.276;2023-02-21T12:20:37;14.95;;;9.10;;
31978;SDS011;18502;43.574;1.276;2023-02-21T12:29:15;14.38;;;8.63;;
31978;SDS011;18502;43.574;1.276;2023-02-21T12:35:01;12.93;;;9.63;;
31978;SDS011;18502;43.574;1.276;2023-02-21T12:43:50;12.38;;;8.27;;
31978;SDS011;18502;43.574;1.276;2023-02-21T12:46:39;13.77;;;8.38;;
31978;SDS011;18502;43.574;1.276;2023-02-21T12:49:24;13.35;;;8.35;;
31978;SDS011;18502;43.574;1.276;2023-02-21T12:52:02;13.48;;;8.02;;
31978;SDS011;18502;43.574;1.276;2023-02-21T13:06:04;12.13;;;7.95;;
31978;SDS011;18502;43.574;1.276;2023-02-21T13:08:34;9.90;;;7.32;;
31978;SDS011;18502;43.574;1.276;2023-02-21T13:13:49;11.77;;;7.20;;
31978;SDS011;18502;43.574;1.276;2023-02-21T13:16:15;11.40;;;7.35;;
31978;SDS011;18502;43.574;1.276;2023-02-21T13:18:50;10.38;;;6.82;;
31978;SDS011;18502;43.574;1.276;2023-02-21T13:29:39;13.80;;;7.40;;
31978;SDS011;18502;43.574;1.276;2023-02-21T13:34:39;9.73;;;7.50;;
31978;SDS011;18502;43.574;1.276;2023-02-21T13:37:15;10.23;;;6.68;;
31978;SDS011;18502;43.574;1.276;2023-02-21T13:39:55;11.63;;;6.25;;
31978;SDS011;18502;43.574;1.276;2023-02-21T13:42:31;10.50;;;6.80;;
31978;SDS011;18502;43.574;1.276;2023-02-21T13:53:08;11.75;;;6.75;;
31978;SDS011;18502;43.574;1.276;2023-02-21T14:03:54;11.18;;;6.55;;
31978;SDS011;18502;43.574;1.276;2023-02-21T14:06:26;9.88;;;7.93;;
31978;SDS011;18502;43.574;1.276;2023-02-21T14:08:58;13.38;;;7.43;;
31978;SDS011;18502;43.574;1.276;2023-02-21T14:11:43;8.68;;;6.72;;
31978;SDS011;18502;43.574;1.276;2023-02-21T14:14:26;10.93;;;7.53;;
31978;SDS011;18502;43.574;1.276;2023-02-21T14:17:06;12.73;;;7.18;;
31978;SDS011;18502;43.574;1.276;2023-02-21T14:19:47;9.43;;;6.20;;
31978;SDS011;18502;43.574;1.276;2023-02-21T14:22:29;11.95;;;6.47;;
31978;SDS011;18502;43.574;1.276;2023-02-21T14:25:06;10.57;;;6.75;;
31978;SDS011;18502;43.574;1.276;2023-02-21T14:27:42;7.63;;;6.30;;
31978;SDS011;18502;43.574;1.276;2023-02-21T14:35:13;7.75;;;6.45;;
31978;SDS011;18502;43.574;1.276;2023-02-21T14:40:35;12.55;;;6.55;;
31978;SDS011;18502;43.574;1.276;2023-02-21T14:51:42;9.23;;;6.30;;
31978;SDS011;18502;43.574;1.276;2023-02-21T14:57:37;10.35;;;6.55;;
31978;SDS011;18502;43.574;1.276;2023-02-21T15:02:57;9.02;;;6.40;;
31978;SDS011;18502;43.574;1.276;2023-02-21T15:05:39;10.70;;;6.60;;
31978;SDS011;18502;43.574;1.276;2023-02-21T15:08:08;11.35;;;6.35;;
31978;SDS011;18502;43.574;1.276;2023-02-21T15:10:48;11.60;;;6.68;;
31978;SDS011;18502;43.574;1.276;2023-02-21T15:15:46;14.05;;;7.70;;
31978;SDS011;18502;43.574;1.276;2023-02-21T15:23:42;11.13;;;6.43;;
31978;SDS011;18502;43.574;1.276;2023-02-21T15:26:16;16.48;;;7.10;;
31978;SDS011;18502;43.574;1.276;2023-02-21T15:31:51;11.10;;;6.15;;
31978;SDS011;18502;43.574;1.276;2023-02-21T15:36:57;11.45;;;6.53;;
31978;SDS011;18502;43.574;1.276;2023-02-21T15:39:33;10.15;;;6.68;;
31978;SDS011;18502;43.574;1.276;2023-02-21T15:42:02;18.17;;;7.60;;
31978;SDS011;18502;43.574;1.276;2023-02-21T15:44:38;10.95;;;6.28;;
31978;SDS011;18502;43.574;1.276;2023-02-21T15:47:11;12.52;;;7.32;;
31978;SDS011;18502;43.574;1.276;2023-02-21T15:49:44;11.00;;;6.68;;
31978;SDS011;18502;43.574;1.276;2023-02-21T15:52:37;12.77;;;7.38;;
31978;SDS011;18502;43.574;1.276;2023-02-21T16:06:17;10.05;;;7.25;;
31978;SDS011;18502;43.574;1.276;2023-02-21T16:08:51;11.38;;;7.50;;
31978;SDS011;18502;43.574;1.276;2023-02-21T16:11:23;14.57;;;8.30;;
31978;SDS011;18502;43.574;1.276;2023-02-21T16:16:50;14.00;;;7.40;;
31978;SDS011;18502;43.574;1.276;2023-02-21T16:19:38;12.32;;;7.40;;
31978;SDS011;18502;43.574;1.276;2023-02-21T16:22:09;13.27;;;7.18;;
31978;SDS011;18502;43.574;1.276;2023-02-21T16:25:02;18.10;;;8.05;;
31978;SDS011;18502;43.574;1.276;2023-02-21T16:27:37;11.93;;;8.00;;
31978;SDS011;18502;43.574;1.276;2023-02-21T16:30:04;16.40;;;8.80;;
31978;SDS011;18502;43.574;1.276;2023-02-21T16:32:31;13.60;;;7.72;;
31978;SDS011;18502;43.574;1.276;2023-02-21T16:34:59;18.05;;;8.00;;
31978;SDS011;18502;43.574;1.276;2023-02-21T16:37:25;13.38;;;7.78;;
31978;SDS011;18502;43.574;1.276;2023-02-21T16:39:52;16.50;;;8.70;;
31978;SDS011;18502;43.574;1.276;2023-02-21T16:42:18;14.20;;;8.77;;
31978;SDS011;18502;43.574;1.276;2023-02-21T16:44:44;16.33;;;9.13;;
31978;SDS011;18502;43.574;1.276;2023-02-21T16:47:15;15.07;;;9.63;;
31978;SDS011;18502;43.574;1.276;2023-02-21T16:49:41;16.50;;;10.10;;
31978;SDS011;18502;43.574;1.276;2023-02-21T16:52:15;19.35;;;11.25;;
31978;SDS011;18502;43.574;1.276;2023-02-21T16:54:41;15.23;;;10.10;;
31978;SDS011;18502;43.574;1.276;2023-02-21T16:57:08;19.13;;;10.20;;
31978;SDS011;18502;43.574;1.276;2023-02-21T16:59:35;19.00;;;10.07;;
31978;SDS011;18502;43.574;1.276;2023-02-21T17:02:01;17.42;;;9.63;;
31978;SDS011;18502;43.574;1.276;2023-02-21T17:04:29;18.13;;;10.88;;
31978;SDS011;18502;43.574;1.276;2023-02-21T17:06:55;15.15;;;9.88;;
31978;SDS011;18502;43.574;1.276;2023-02-21T17:09:23;19.88;;;11.00;;
31978;SDS011;18502;43.574;1.276;2023-02-21T17:11:50;16.35;;;10.23;;
31978;SDS011;18502;43.574;1.276;2023-02-21T17:14:17;17.85;;;10.73;;
31978;SDS011;18502;43.574;1.276;2023-02-21T17:16:43;17.02;;;10.45;;
31978;SDS011;18502;43.574;1.276;2023-02-21T17:19:13;16.42;;;10.38;;
31978;SDS011;18502;43.574;1.276;2023-02-21T17:21:41;16.05;;;9.88;;
31978;SDS011;18502;43.574;1.276;2023-02-21T17:24:08;20.05;;;11.23;;
31978;SDS011;18502;43.574;1.276;2023-02-21T17:26:35;16.02;;;10.57;;
31978;SDS011;18502;43.574;1.276;2023-02-21T17:29:02;20.92;;;12.30;;
31978;SDS011;18502;43.574;1.276;2023-02-21T17:31:28;16.92;;;11.20;;
31978;SDS011;18502;43.574;1.276;2023-02-21T17:33:54;22.13;;;11.85;;
31978;SDS011;18502;43.574;1.276;2023-02-21T17:36:21;23.17;;;13.07;;
31978;SDS011;18502;43.574;1.276;2023-02-21T17:38:48;19.98;;;12.52;;
31978;SDS011;18502;43.574;1.276;2023-02-21T17:41:14;19.98;;;12.02;;
31978;SDS011;18502;43.574;1.276;2023-02-21T17:43:43;20.38;;;12.80;;
31978;SDS011;18502;43.574;1.276;2023-02-21T17:46:09;21.45;;;12.05;;
31978;SDS011;18502;43.574;1.276;2023-02-21T17:48:36;21.50;;;12.57;;
31978;SDS011;18502;43.574;1.276;2023-02-21T17:51:04;18.73;;;11.05;;
31978;SDS011;18502;43.574;1.276;2023-02-21T17:53:29;18.92;;;11.30;;
31978;SDS011;18502;43.574;1.276;2023-02-21T17:55:55;22.05;;;13.07;;
31978;SDS011;18502;43.574;1.276;2023-02-21T17:58:23;25.02;;;12.57;;
31978;SDS011;18502;43.574;1.276;2023-02-21T18:00:54;22.17;;;13.88;;
31978;SDS011;18502;43.574;1.276;2023-02-21T18:03:20;22.50;;;13.10;;
31978;SDS011;18502;43.574;1.276;2023-02-21T18:05:46;17.67;;;12.35;;
31978;SDS011;18502;43.574;1.276;2023-02-21T18:08:13;22.70;;;13.27;;
31978;SDS011;18502;43.574;1.276;2023-02-21T18:10:40;18.88;;;12.40;;
31978;SDS011;18502;43.574;1.276;2023-02-21T18:13:10;24.00;;;12.90;;
31978;SDS011;18502;43.574;1.276;2023-02-21T18:15:39;21.15;;;14.38;;